createdAt,value
2022-10-22T00:00:46.624Z,100554.13
2022-10-22T00:05:48.430Z,100547.63
2022-10-22T00:10:50.968Z,100552.03
2022-10-22T00:15:52.272Z,100549.09
2022-10-22T00:20:53.580Z,100529.75
2022-10-22T00:25:54.977Z,100503.13
2022-10-22T00:30:57.796Z,100512.63
2022-10-22T00:35:59.209Z,100503.72
2022-10-22T00:46:06.840Z,100516.28
2022-10-22T00:51:09.340Z,100504.59
2022-10-22T00:56:11.402Z,100503.56
2022-10-22T01:01:21.629Z,100509.84
2022-10-22T01:06:33.412Z,100507.38
2022-10-22T01:11:40.623Z,100512.97
2022-10-22T01:16:59.183Z,100532.75
2022-10-22T01:22:05.865Z,100521.88
2022-10-22T01:27:07.166Z,100525.53
2022-10-22T01:32:14.706Z,100508.41
2022-10-22T01:37:17.955Z,100504.53
2022-10-22T01:42:19.306Z,100514.09
2022-10-22T01:47:29.703Z,100506.88
2022-10-22T01:52:30.990Z,100508.91
2022-10-22T01:57:53.291Z,100513.34
2022-10-22T02:02:58.832Z,100507.06
2022-10-22T02:08:02.408Z,100497.81
2022-10-22T02:13:04.874Z,100514.16
2022-10-22T02:18:08.581Z,100503.34
2022-10-22T02:23:10.351Z,100510.94
2022-10-22T02:28:24.522Z,100511.16
2022-10-22T02:33:31.259Z,100514.50
2022-10-22T02:38:34.423Z,100518.88
2022-10-22T02:43:43.089Z,100510.06
2022-10-22T02:48:44.395Z,100520.28
2022-10-22T02:53:45.771Z,100507.94
2022-10-22T02:58:47.071Z,100513.88
2022-10-22T03:03:48.570Z,100530.13
2022-10-22T03:08:49.931Z,100532.25
2022-10-22T03:13:51.257Z,100550.41
2022-10-22T03:18:52.610Z,100552.28
2022-10-22T03:23:54.175Z,100537.84
2022-10-22T03:28:55.636Z,100538.31
2022-10-22T03:33:56.938Z,100547.22
2022-10-22T03:38:59.284Z,100545.78
2022-10-22T03:44:01.791Z,100540.84
2022-10-22T03:49:03.139Z,100549.06
2022-10-22T03:54:04.981Z,100561.41
2022-10-22T03:59:06.291Z,100566.13
2022-10-22T04:04:07.767Z,100579.72
2022-10-22T04:09:09.190Z,100578.72
2022-10-22T04:14:12.023Z,100593.03
2022-10-22T04:19:13.416Z,100595.47
2022-10-22T04:24:15.083Z,100604.13
2022-10-22T04:29:16.573Z,100614.59
2022-10-22T04:34:17.942Z,100610.78
2022-10-22T04:39:19.342Z,100607.94
2022-10-22T04:44:20.627Z,100606.56
2022-10-22T04:49:21.936Z,100614.59
2022-10-22T04:54:23.283Z,100607.94
2022-10-22T04:59:24.592Z,100614.19
2022-10-22T05:04:26.013Z,100623.03
2022-10-22T05:09:27.389Z,100622.25
2022-10-22T05:14:28.695Z,100624.38
2022-10-22T05:19:30.941Z,100632.41
2022-10-22T05:24:33.522Z,100630.13
2022-10-22T05:29:34.904Z,100631.78
2022-10-22T05:34:36.333Z,100630.59
2022-10-22T05:39:40.193Z,100642.72
2022-10-22T05:44:41.515Z,100647.78
2022-10-22T05:49:42.823Z,100654.25
2022-10-22T05:54:44.143Z,100656.25
2022-10-22T05:59:46.051Z,100670.16
2022-10-22T06:04:47.734Z,100685.94
2022-10-22T06:09:50.262Z,100693.28
2022-10-22T06:14:51.562Z,100700.53
2022-10-22T06:19:52.882Z,100711.19
2022-10-22T06:24:54.221Z,100727.06
2022-10-22T06:29:55.539Z,100735.13
2022-10-22T06:34:56.945Z,100734.59
2022-10-22T06:39:58.251Z,100733.41
2022-10-22T06:44:59.614Z,100761.19
2022-10-22T06:50:00.918Z,100754.56
2022-10-22T06:55:02.285Z,100759.16
2022-10-22T07:00:05.120Z,100768.03
2022-10-22T07:05:06.723Z,100767.28
2022-10-22T07:10:08.443Z,100772.13
2022-10-22T07:15:09.975Z,100781.59
2022-10-22T07:20:12.422Z,100790.47
2022-10-22T07:25:13.763Z,100801.13
2022-10-22T07:30:15.133Z,100803.88
2022-10-22T07:35:16.463Z,100823.44
2022-10-22T07:40:17.762Z,100825.22
2022-10-22T07:45:19.116Z,100839.38
2022-10-22T07:50:20.426Z,100852.91
2022-10-22T07:55:21.733Z,100857.84
2022-10-22T08:00:25.226Z,100853.06
2022-10-22T08:05:26.871Z,100853.91
2022-10-22T08:10:28.174Z,100855.03
2022-10-22T08:15:29.624Z,100868.97
2022-10-22T08:20:30.924Z,100876.84
2022-10-22T08:25:32.500Z,100873.50
2022-10-22T08:30:33.995Z,100876.59
2022-10-22T08:35:35.356Z,100889.00
2022-10-22T08:40:39.684Z,100892.25
2022-10-22T08:45:46.448Z,100890.53
2022-10-22T08:50:49.737Z,100903.22
2022-10-22T08:55:53.550Z,100909.75
2022-10-22T09:01:00.853Z,100912.19
2022-10-22T09:06:08.459Z,100905.03
2022-10-22T09:11:12.549Z,100909.66
2022-10-22T09:16:16.502Z,100916.06
2022-10-22T09:21:29.784Z,100919.88
2022-10-22T09:26:32.371Z,100930.75
2022-10-22T09:31:34.265Z,100937.94
2022-10-22T09:36:35.866Z,100936.66
2022-10-22T09:41:37.173Z,100930.28
2022-10-22T09:46:43.882Z,100928.50
2022-10-22T09:51:48.286Z,100928.78
2022-10-22T09:56:54.306Z,100936.50
2022-10-22T10:02:13.374Z,100935.94
2022-10-22T10:07:23.525Z,100940.63
2022-10-22T10:12:33.973Z,100956.91
2022-10-22T10:17:54.231Z,100951.94
2022-10-22T10:23:03.159Z,100953.75
2022-10-22T10:28:12.615Z,100965.25
2022-10-22T10:33:16.975Z,100978.97
2022-10-22T10:38:18.245Z,100969.09
2022-10-22T10:43:38.290Z,100970.03
2022-10-22T10:48:51.116Z,100973.69
2022-10-22T10:54:04.874Z,100977.13
2022-10-22T10:59:25.609Z,100972.00
2022-10-22T11:04:39.551Z,100963.06
2022-10-22T11:09:53.586Z,100965.47
2022-10-22T11:14:54.863Z,100950.47
2022-10-22T11:20:01.758Z,100965.63
2022-10-22T11:25:05.777Z,100962.88
2022-10-22T11:30:17.931Z,100966.00
2022-10-22T11:35:25.905Z,100970.56
2022-10-22T11:40:36.918Z,100968.41
2022-10-22T11:45:42.554Z,100970.91
2022-10-22T11:50:54.237Z,100974.22
2022-10-22T11:56:04.938Z,100975.69
2022-10-22T12:01:09.356Z,100975.28
2022-10-22T12:06:15.654Z,100972.84
2022-10-22T12:11:17.179Z,100970.22
2022-10-22T12:16:27.326Z,100954.63
2022-10-22T12:21:42.776Z,100955.66
2022-10-22T12:26:45.919Z,100949.13
2022-10-22T12:31:47.408Z,100941.50
2022-10-22T12:36:49.561Z,100939.28
2022-10-22T12:41:52.012Z,100942.69
2022-10-22T12:46:56.882Z,100931.75
2022-10-22T12:52:00.859Z,100934.59
2022-10-22T12:57:02.416Z,100930.56
2022-10-22T13:02:15.359Z,100933.84
2022-10-22T13:07:19.952Z,100931.63
2022-10-22T13:12:35.623Z,100936.00
2022-10-22T13:17:39.161Z,100924.88
2022-10-22T13:22:41.835Z,100929.91
2022-10-22T13:27:44.228Z,100919.56
2022-10-22T13:32:49.871Z,100917.16
2022-10-22T13:37:51.452Z,100928.53
2022-10-22T13:42:52.765Z,100922.22
2022-10-22T13:47:54.725Z,100918.34
2022-10-22T13:52:57.528Z,100918.25
2022-10-22T13:58:04.443Z,100920.19
2022-10-22T14:03:06.575Z,100918.13
2022-10-22T14:08:12.676Z,100915.91
2022-10-22T14:13:15.446Z,100923.91
2022-10-22T14:18:24.134Z,100931.66
2022-10-22T14:23:28.567Z,100923.94
2022-10-22T14:28:34.138Z,100913.50
2022-10-22T14:33:42.276Z,100930.69
2022-10-22T14:38:44.167Z,100925.88
2022-10-22T14:43:45.727Z,100932.03
2022-10-22T14:48:47.556Z,100925.38
2022-10-22T14:53:48.933Z,100919.19
2022-10-22T14:58:50.808Z,100914.59
2022-10-22T15:03:52.171Z,100917.16
2022-10-22T15:08:53.533Z,100927.94
2022-10-22T15:13:54.873Z,100918.94
2022-10-22T15:18:57.156Z,100919.44
2022-10-22T15:23:58.653Z,100927.38
2022-10-22T15:29:01.846Z,100933.16
2022-10-22T15:34:03.139Z,100936.63
2022-10-22T15:39:08.634Z,100938.28
2022-10-22T15:44:15.612Z,100945.69
2022-10-22T15:49:17.307Z,100948.09
2022-10-22T15:54:19.977Z,100939.47
2022-10-22T15:59:21.392Z,100940.25
2022-10-22T16:04:22.722Z,100943.13
2022-10-22T16:09:25.386Z,100941.47
2022-10-22T16:14:28.616Z,100945.88
2022-10-22T16:19:29.935Z,100951.28
2022-10-22T16:24:31.310Z,100954.88
2022-10-22T16:29:33.503Z,100960.00
2022-10-22T16:34:34.845Z,100957.88
2022-10-22T16:39:36.202Z,100970.47
2022-10-22T16:44:37.538Z,100969.94
2022-10-22T16:49:38.859Z,100974.38
2022-10-22T16:54:40.295Z,100976.63
2022-10-22T16:59:41.568Z,100992.34
2022-10-22T17:04:42.924Z,100988.53
2022-10-22T17:09:44.221Z,100998.34
2022-10-22T17:14:45.525Z,101004.31
2022-10-22T17:19:46.891Z,101007.81
2022-10-22T17:25:04.360Z,101012.47
2022-10-22T17:30:06.099Z,101007.47
2022-10-22T17:35:08.145Z,101016.75
2022-10-22T17:40:09.968Z,101021.81
2022-10-22T17:45:11.262Z,101018.97
2022-10-22T17:50:12.574Z,101029.25
2022-10-22T17:55:13.953Z,101026.63
2022-10-22T18:00:16.332Z,101032.25
2022-10-22T18:05:17.690Z,101032.91
2022-10-22T18:10:18.991Z,101036.06
2022-10-22T18:15:20.300Z,101025.94
2022-10-22T18:20:21.672Z,101025.94
2022-10-22T18:25:23.017Z,101037.38
2022-10-22T18:30:24.350Z,101037.91
2022-10-22T18:35:25.646Z,101034.84
2022-10-22T18:40:26.943Z,101029.59
2022-10-22T18:45:28.291Z,101039.88
2022-10-22T18:50:29.692Z,101036.59
2022-10-22T18:55:31.157Z,101035.34
2022-10-22T19:00:32.976Z,101036.34
2022-10-22T19:05:34.294Z,101028.03
2022-10-22T19:10:35.596Z,101018.38
2022-10-22T19:15:36.898Z,101016.16
2022-10-22T19:20:38.222Z,101022.72
2022-10-22T19:25:39.567Z,101021.50
2022-10-22T19:30:44.097Z,101020.03
2022-10-22T19:35:45.404Z,101033.25
2022-10-22T19:40:46.727Z,101038.75
2022-10-22T19:45:48.070Z,101046.97
2022-10-22T19:50:50.973Z,101032.31
2022-10-22T19:55:52.346Z,101036.63
2022-10-22T20:00:53.827Z,101037.25
2022-10-22T20:05:55.225Z,101038.44
2022-10-22T20:10:56.543Z,101040.63
2022-10-22T20:15:57.962Z,101038.78
2022-10-22T20:20:59.756Z,101045.38
2022-10-22T20:26:01.133Z,101052.16
2022-10-22T20:31:07.461Z,101043.72
2022-10-22T20:36:12.656Z,101046.50
2022-10-22T20:41:15.434Z,101041.66
2022-10-22T20:46:22.347Z,101027.91
2022-10-22T20:51:23.728Z,101024.22
2022-10-22T20:56:25.630Z,101027.59
2022-10-22T21:01:28.450Z,101027.72
2022-10-22T21:06:29.902Z,101043.16
2022-10-22T21:11:31.259Z,101043.34
2022-10-22T21:16:33.073Z,101037.75
2022-10-22T21:21:34.588Z,101038.28
2022-10-22T21:26:36.957Z,101044.94
2022-10-22T21:31:39.339Z,101037.69
2022-10-22T21:36:40.733Z,101046.56
2022-10-22T21:41:42.084Z,101046.03
2022-10-22T21:46:43.476Z,101049.81
2022-10-22T21:51:44.877Z,101051.97
2022-10-22T21:56:46.245Z,101038.66
2022-10-22T22:01:47.595Z,101041.00
2022-10-22T22:06:48.954Z,101034.19
2022-10-22T22:11:50.260Z,101026.97
2022-10-22T22:16:51.593Z,101023.53
2022-10-22T22:21:52.978Z,101015.03
2022-10-22T22:26:54.322Z,101023.47
2022-10-22T22:31:55.622Z,101011.41
2022-10-22T22:36:56.929Z,101011.53
2022-10-22T22:41:58.318Z,101004.63
2022-10-22T22:46:59.624Z,101000.91
2022-10-22T22:52:00.927Z,100998.91
2022-10-22T22:57:02.242Z,101004.97
2022-10-22T23:02:03.570Z,101002.84
2022-10-22T23:07:04.912Z,101005.00
2022-10-22T23:12:06.303Z,100993.94
2022-10-22T23:17:07.634Z,100994.06
2022-10-22T23:22:08.935Z,100993.75
2022-10-22T23:27:10.714Z,100994.97
2022-10-22T23:32:14.265Z,100995.22
2022-10-22T23:37:15.652Z,100995.34
2022-10-22T23:42:16.990Z,100998.81
2022-10-22T23:47:18.295Z,101001.50
2022-10-22T23:52:19.601Z,100994.06
2022-10-22T23:57:20.977Z,100989.38
